sensor_id;sensor_type;location;lat;lon;timestamp;P1;durP1;ratioP1;P2;durP2;ratioP2
22774;SDS011;11554;51.106;3.684;2023-11-19T00:00:00;20.70;;;3.70;;
22774;SDS011;11554;51.106;3.684;2023-11-19T00:05:00;20.70;;;3.70;;
22774;SDS011;11554;51.106;3.684;2023-11-19T00:10:00;25.60;;;4.10;;
22774;SDS011;11554;51.106;3.684;2023-11-19T00:15:00;25.60;;;4.10;;
22774;SDS011;11554;51.106;3.684;2023-11-19T00:20:00;19.30;;;3.50;;
22774;SDS011;11554;51.106;3.684;2023-11-19T00:25:00;19.30;;;3.50;;
22774;SDS011;11554;51.106;3.684;2023-11-19T00:30:00;26.80;;;4.10;;
22774;SDS011;11554;51.106;3.684;2023-11-19T00:35:00;26.80;;;4.10;;
22774;SDS011;11554;51.106;3.684;2023-11-19T00:40:00;27.00;;;4.20;;
22774;SDS011;11554;51.106;3.684;2023-11-19T00:45:00;27.00;;;4.20;;
22774;SDS011;11554;51.106;3.684;2023-11-19T00:50:00;28.60;;;4.50;;
22774;SDS011;11554;51.106;3.684;2023-11-19T00:55:00;28.60;;;4.50;;
22774;SDS011;11554;51.106;3.684;2023-11-19T01:00:00;28.00;;;4.10;;
22774;SDS011;11554;51.106;3.684;2023-11-19T01:05:00;28.00;;;4.10;;
22774;SDS011;11554;51.106;3.684;2023-11-19T01:10:00;29.30;;;4.80;;
22774;SDS011;11554;51.106;3.684;2023-11-19T01:15:00;29.30;;;4.80;;
22774;SDS011;11554;51.106;3.684;2023-11-19T01:20:00;29.50;;;4.90;;
22774;SDS011;11554;51.106;3.684;2023-11-19T01:25:00;29.50;;;4.90;;
22774;SDS011;11554;51.106;3.684;2023-11-19T01:30:00;35.00;;;5.30;;
22774;SDS011;11554;51.106;3.684;2023-11-19T01:35:00;35.00;;;5.30;;
22774;SDS011;11554;51.106;3.684;2023-11-19T01:40:00;35.60;;;5.80;;
22774;SDS011;11554;51.106;3.684;2023-11-19T01:45:01;35.60;;;5.80;;
22774;SDS011;11554;51.106;3.684;2023-11-19T01:50:01;32.20;;;6.10;;
22774;SDS011;11554;51.106;3.684;2023-11-19T01:55:01;32.20;;;6.10;;
22774;SDS011;11554;51.106;3.684;2023-11-19T02:00:00;39.30;;;5.70;;
22774;SDS011;11554;51.106;3.684;2023-11-19T02:05:00;39.30;;;5.70;;
22774;SDS011;11554;51.106;3.684;2023-11-19T02:10:00;37.60;;;5.90;;
22774;SDS011;11554;51.106;3.684;2023-11-19T02:15:00;37.60;;;5.90;;
22774;SDS011;11554;51.106;3.684;2023-11-19T02:20:00;37.90;;;5.40;;
22774;SDS011;11554;51.106;3.684;2023-11-19T02:25:04;37.90;;;5.40;;
22774;SDS011;11554;51.106;3.684;2023-11-19T02:30:00;34.20;;;5.20;;
22774;SDS011;11554;51.106;3.684;2023-11-19T02:35:00;34.20;;;5.20;;
22774;SDS011;11554;51.106;3.684;2023-11-19T02:40:00;39.20;;;5.80;;
22774;SDS011;11554;51.106;3.684;2023-11-19T02:45:00;39.20;;;5.80;;
22774;SDS011;11554;51.106;3.684;2023-11-19T02:50:01;44.10;;;6.30;;
22774;SDS011;11554;51.106;3.684;2023-11-19T02:55:00;44.10;;;6.30;;
22774;SDS011;11554;51.106;3.684;2023-11-19T03:00:00;38.10;;;5.40;;
22774;SDS011;11554;51.106;3.684;2023-11-19T03:05:00;38.10;;;5.40;;
22774;SDS011;11554;51.106;3.684;2023-11-19T03:10:00;37.30;;;5.60;;
22774;SDS011;11554;51.106;3.684;2023-11-19T03:15:00;37.30;;;5.60;;
22774;SDS011;11554;51.106;3.684;2023-11-19T03:20:00;38.70;;;5.90;;
22774;SDS011;11554;51.106;3.684;2023-11-19T03:25:00;38.70;;;5.90;;
22774;SDS011;11554;51.106;3.684;2023-11-19T03:30:00;37.40;;;6.20;;
22774;SDS011;11554;51.106;3.684;2023-11-19T03:35:00;37.40;;;6.20;;
22774;SDS011;11554;51.106;3.684;2023-11-19T03:40:00;41.20;;;6.40;;
22774;SDS011;11554;51.106;3.684;2023-11-19T03:45:00;41.20;;;6.40;;
22774;SDS011;11554;51.106;3.684;2023-11-19T03:50:00;37.10;;;5.60;;
22774;SDS011;11554;51.106;3.684;2023-11-19T03:55:00;37.10;;;5.60;;
22774;SDS011;11554;51.106;3.684;2023-11-19T04:00:00;36.00;;;6.20;;
22774;SDS011;11554;51.106;3.684;2023-11-19T04:05:00;36.00;;;6.20;;
22774;SDS011;11554;51.106;3.684;2023-11-19T04:10:00;37.90;;;5.80;;
22774;SDS011;11554;51.106;3.684;2023-11-19T04:15:00;37.90;;;5.80;;
22774;SDS011;11554;51.106;3.684;2023-11-19T04:20:00;39.10;;;5.70;;
22774;SDS011;11554;51.106;3.684;2023-11-19T04:25:00;39.10;;;5.70;;
22774;SDS011;11554;51.106;3.684;2023-11-19T04:30:00;40.00;;;5.60;;
22774;SDS011;11554;51.106;3.684;2023-11-19T04:35:00;40.00;;;5.60;;
22774;SDS011;11554;51.106;3.684;2023-11-19T04:40:00;41.60;;;5.50;;
22774;SDS011;11554;51.106;3.684;2023-11-19T04:45:00;41.60;;;5.50;;
22774;SDS011;11554;51.106;3.684;2023-11-19T04:50:00;35.60;;;5.10;;
22774;SDS011;11554;51.106;3.684;2023-11-19T04:55:00;35.60;;;5.10;;
22774;SDS011;11554;51.106;3.684;2023-11-19T05:00:00;40.80;;;5.90;;
22774;SDS011;11554;51.106;3.684;2023-11-19T05:05:00;40.80;;;5.90;;
22774;SDS011;11554;51.106;3.684;2023-11-19T05:10:00;35.80;;;5.70;;
22774;SDS011;11554;51.106;3.684;2023-11-19T05:15:00;35.80;;;5.70;;
22774;SDS011;11554;51.106;3.684;2023-11-19T05:20:00;39.70;;;6.00;;
22774;SDS011;11554;51.106;3.684;2023-11-19T05:25:00;39.70;;;6.00;;
22774;SDS011;11554;51.106;3.684;2023-11-19T05:30:00;36.30;;;5.50;;
22774;SDS011;11554;51.106;3.684;2023-11-19T05:35:00;36.30;;;5.50;;
22774;SDS011;11554;51.106;3.684;2023-11-19T05:40:00;42.90;;;6.10;;
22774;SDS011;11554;51.106;3.684;2023-11-19T05:45:00;42.90;;;6.10;;
22774;SDS011;11554;51.106;3.684;2023-11-19T05:50:00;42.30;;;5.90;;
22774;SDS011;11554;51.106;3.684;2023-11-19T05:55:01;42.30;;;5.90;;
22774;SDS011;11554;51.106;3.684;2023-11-19T06:00:00;48.60;;;6.20;;
22774;SDS011;11554;51.106;3.684;2023-11-19T06:05:00;48.60;;;6.20;;
22774;SDS011;11554;51.106;3.684;2023-11-19T06:10:00;40.20;;;5.90;;
22774;SDS011;11554;51.106;3.684;2023-11-19T06:15:00;40.20;;;5.90;;
22774;SDS011;11554;51.106;3.684;2023-11-19T06:20:00;38.60;;;6.20;;
22774;SDS011;11554;51.106;3.684;2023-11-19T06:25:00;38.60;;;6.20;;
22774;SDS011;11554;51.106;3.684;2023-11-19T06:30:00;42.40;;;5.80;;
22774;SDS011;11554;51.106;3.684;2023-11-19T06:35:00;42.40;;;5.80;;
22774;SDS011;11554;51.106;3.684;2023-11-19T06:40:00;42.00;;;5.40;;
22774;SDS011;11554;51.106;3.684;2023-11-19T06:45:00;42.00;;;5.40;;
22774;SDS011;11554;51.106;3.684;2023-11-19T06:50:00;41.50;;;6.50;;
22774;SDS011;11554;51.106;3.684;2023-11-19T06:55:00;41.50;;;6.50;;
22774;SDS011;11554;51.106;3.684;2023-11-19T07:00:00;37.20;;;5.50;;
22774;SDS011;11554;51.106;3.684;2023-11-19T07:05:00;37.20;;;5.50;;
22774;SDS011;11554;51.106;3.684;2023-11-19T07:10:00;43.10;;;6.60;;
22774;SDS011;11554;51.106;3.684;2023-11-19T07:15:00;43.10;;;6.60;;
22774;SDS011;11554;51.106;3.684;2023-11-19T07:20:00;37.50;;;5.60;;
22774;SDS011;11554;51.106;3.684;2023-11-19T07:25:00;37.50;;;5.60;;
22774;SDS011;11554;51.106;3.684;2023-11-19T07:30:00;41.50;;;6.90;;
22774;SDS011;11554;51.106;3.684;2023-11-19T07:35:00;41.50;;;6.90;;
22774;SDS011;11554;51.106;3.684;2023-11-19T07:40:00;49.90;;;6.80;;
22774;SDS011;11554;51.106;3.684;2023-11-19T07:45:00;49.90;;;6.80;;
22774;SDS011;11554;51.106;3.684;2023-11-19T07:50:00;42.90;;;5.90;;
22774;SDS011;11554;51.106;3.684;2023-11-19T07:55:00;42.90;;;5.90;;
22774;SDS011;11554;51.106;3.684;2023-11-19T08:00:00;48.70;;;6.90;;
22774;SDS011;11554;51.106;3.684;2023-11-19T08:05:00;48.70;;;6.90;;
22774;SDS011;11554;51.106;3.684;2023-11-19T08:10:00;43.00;;;6.40;;
22774;SDS011;11554;51.106;3.684;2023-11-19T08:15:00;43.00;;;6.40;;
22774;SDS011;11554;51.106;3.684;2023-11-19T08:20:00;43.30;;;6.60;;
22774;SDS011;11554;51.106;3.684;2023-11-19T08:25:00;43.30;;;6.60;;
22774;SDS011;11554;51.106;3.684;2023-11-19T08:30:00;55.00;;;7.50;;
22774;SDS011;11554;51.106;3.684;2023-11-19T08:35:00;55.00;;;7.50;;
22774;SDS011;11554;51.106;3.684;2023-11-19T08:40:00;45.10;;;6.30;;
22774;SDS011;11554;51.106;3.684;2023-11-19T08:45:00;45.10;;;6.30;;
22774;SDS011;11554;51.106;3.684;2023-11-19T08:50:00;51.40;;;7.00;;
22774;SDS011;11554;51.106;3.684;2023-11-19T08:55:00;51.40;;;7.00;;
22774;SDS011;11554;51.106;3.684;2023-11-19T09:00:00;50.90;;;7.80;;
22774;SDS011;11554;51.106;3.684;2023-11-19T09:05:01;50.90;;;7.80;;
22774;SDS011;11554;51.106;3.684;2023-11-19T09:10:00;42.50;;;6.40;;
22774;SDS011;11554;51.106;3.684;2023-11-19T09:15:00;42.50;;;6.40;;
22774;SDS011;11554;51.106;3.684;2023-11-19T09:20:00;42.50;;;6.50;;
22774;SDS011;11554;51.106;3.684;2023-11-19T09:25:00;42.50;;;6.50;;
22774;SDS011;11554;51.106;3.684;2023-11-19T09:30:00;37.00;;;5.60;;
22774;SDS011;11554;51.106;3.684;2023-11-19T09:35:00;37.00;;;5.60;;
22774;SDS011;11554;51.106;3.684;2023-11-19T09:40:00;39.90;;;5.70;;
22774;SDS011;11554;51.106;3.684;2023-11-19T09:45:02;39.90;;;5.70;;
22774;SDS011;11554;51.106;3.684;2023-11-19T09:50:00;42.40;;;6.10;;
22774;SDS011;11554;51.106;3.684;2023-11-19T09:55:00;42.40;;;6.10;;
22774;SDS011;11554;51.106;3.684;2023-11-19T10:00:01;49.50;;;6.70;;
22774;SDS011;11554;51.106;3.684;2023-11-19T10:05:04;49.50;;;6.70;;
22774;SDS011;11554;51.106;3.684;2023-11-19T10:10:00;41.90;;;5.60;;
22774;SDS011;11554;51.106;3.684;2023-11-19T10:15:01;41.90;;;5.60;;
22774;SDS011;11554;51.106;3.684;2023-11-19T10:20:00;28.30;;;3.60;;
22774;SDS011;11554;51.106;3.684;2023-11-19T10:25:00;28.30;;;3.60;;
22774;SDS011;11554;51.106;3.684;2023-11-19T10:30:00;29.80;;;5.40;;
22774;SDS011;11554;51.106;3.684;2023-11-19T10:35:07;29.80;;;5.40;;
22774;SDS011;11554;51.106;3.684;2023-11-19T10:40:00;34.50;;;5.50;;
22774;SDS011;11554;51.106;3.684;2023-11-19T10:45:00;34.50;;;5.50;;
22774;SDS011;11554;51.106;3.684;2023-11-19T10:50:00;31.30;;;5.40;;
22774;SDS011;11554;51.106;3.684;2023-11-19T10:55:02;31.30;;;5.40;;
22774;SDS011;11554;51.106;3.684;2023-11-19T11:00:02;38.40;;;6.00;;
22774;SDS011;11554;51.106;3.684;2023-11-19T11:05:01;38.40;;;6.00;;
22774;SDS011;11554;51.106;3.684;2023-11-19T11:10:01;42.70;;;5.60;;
22774;SDS011;11554;51.106;3.684;2023-11-19T11:15:00;42.70;;;5.60;;
22774;SDS011;11554;51.106;3.684;2023-11-19T11:20:00;33.70;;;5.10;;
22774;SDS011;11554;51.106;3.684;2023-11-19T11:25:16;33.70;;;5.10;;
22774;SDS011;11554;51.106;3.684;2023-11-19T11:30:11;30.50;;;5.60;;
22774;SDS011;11554;51.106;3.684;2023-11-19T11:35:15;30.50;;;5.60;;
22774;SDS011;11554;51.106;3.684;2023-11-19T11:40:01;32.40;;;5.70;;
22774;SDS011;11554;51.106;3.684;2023-11-19T11:45:02;32.40;;;5.70;;
22774;SDS011;11554;51.106;3.684;2023-11-19T11:50:05;30.20;;;5.90;;
22774;SDS011;11554;51.106;3.684;2023-11-19T11:55:04;30.20;;;5.90;;
22774;SDS011;11554;51.106;3.684;2023-11-19T12:00:02;33.70;;;5.30;;
22774;SDS011;11554;51.106;3.684;2023-11-19T12:05:00;33.70;;;5.30;;
22774;SDS011;11554;51.106;3.684;2023-11-19T12:10:06;31.40;;;5.30;;
22774;SDS011;11554;51.106;3.684;2023-11-19T12:15:03;31.40;;;5.30;;
22774;SDS011;11554;51.106;3.684;2023-11-19T12:20:00;30.80;;;5.40;;
22774;SDS011;11554;51.106;3.684;2023-11-19T12:25:01;30.80;;;5.40;;
22774;SDS011;11554;51.106;3.684;2023-11-19T12:30:00;34.70;;;5.70;;
22774;SDS011;11554;51.106;3.684;2023-11-19T12:35:00;34.70;;;5.70;;
22774;SDS011;11554;51.106;3.684;2023-11-19T12:40:00;34.30;;;5.10;;
22774;SDS011;11554;51.106;3.684;2023-11-19T12:45:00;34.30;;;5.10;;
22774;SDS011;11554;51.106;3.684;2023-11-19T12:50:00;25.70;;;4.50;;
22774;SDS011;11554;51.106;3.684;2023-11-19T12:55:01;25.70;;;4.50;;
22774;SDS011;11554;51.106;3.684;2023-11-19T13:00:00;29.90;;;5.50;;
22774;SDS011;11554;51.106;3.684;2023-11-19T13:10:01;31.90;;;5.00;;
22774;SDS011;11554;51.106;3.684;2023-11-19T13:15:00;31.90;;;5.00;;
22774;SDS011;11554;51.106;3.684;2023-11-19T13:20:00;31.80;;;5.20;;
22774;SDS011;11554;51.106;3.684;2023-11-19T13:25:00;31.80;;;5.20;;
22774;SDS011;11554;51.106;3.684;2023-11-19T13:30:04;24.30;;;4.30;;
22774;SDS011;11554;51.106;3.684;2023-11-19T13:35:00;24.30;;;4.30;;
22774;SDS011;11554;51.106;3.684;2023-11-19T13:40:01;29.10;;;4.80;;
22774;SDS011;11554;51.106;3.684;2023-11-19T13:45:00;29.10;;;4.80;;
22774;SDS011;11554;51.106;3.684;2023-11-19T13:50:00;28.60;;;5.30;;
22774;SDS011;11554;51.106;3.684;2023-11-19T13:55:00;28.60;;;5.30;;
22774;SDS011;11554;51.106;3.684;2023-11-19T14:00:00;29.60;;;5.40;;
22774;SDS011;11554;51.106;3.684;2023-11-19T14:05:00;29.60;;;5.40;;
22774;SDS011;11554;51.106;3.684;2023-11-19T14:10:00;22.10;;;4.80;;
22774;SDS011;11554;51.106;3.684;2023-11-19T14:15:00;22.10;;;4.80;;
22774;SDS011;11554;51.106;3.684;2023-11-19T14:20:00;20.90;;;3.70;;
22774;SDS011;11554;51.106;3.684;2023-11-19T14:25:00;20.90;;;3.70;;
22774;SDS011;11554;51.106;3.684;2023-11-19T14:30:00;27.80;;;4.40;;
22774;SDS011;11554;51.106;3.684;2023-11-19T14:35:00;27.80;;;4.40;;
22774;SDS011;11554;51.106;3.684;2023-11-19T14:40:00;27.80;;;4.80;;
22774;SDS011;11554;51.106;3.684;2023-11-19T14:45:00;27.80;;;4.80;;
22774;SDS011;11554;51.106;3.684;2023-11-19T14:50:00;29.70;;;4.90;;
22774;SDS011;11554;51.106;3.684;2023-11-19T14:55:00;29.70;;;4.90;;
22774;SDS011;11554;51.106;3.684;2023-11-19T15:00:00;28.70;;;5.30;;
22774;SDS011;11554;51.106;3.684;2023-11-19T15:05:00;28.70;;;5.30;;
22774;SDS011;11554;51.106;3.684;2023-11-19T15:10:00;23.20;;;4.70;;
22774;SDS011;11554;51.106;3.684;2023-11-19T15:15:00;23.20;;;4.70;;
22774;SDS011;11554;51.106;3.684;2023-11-19T15:20:00;27.20;;;4.60;;
22774;SDS011;11554;51.106;3.684;2023-11-19T15:25:00;27.20;;;4.60;;
22774;SDS011;11554;51.106;3.684;2023-11-19T15:30:00;29.30;;;5.10;;
22774;SDS011;11554;51.106;3.684;2023-11-19T15:35:00;29.30;;;5.10;;
22774;SDS011;11554;51.106;3.684;2023-11-19T15:40:00;21.90;;;4.20;;
22774;SDS011;11554;51.106;3.684;2023-11-19T15:45:00;21.90;;;4.20;;
22774;SDS011;11554;51.106;3.684;2023-11-19T15:50:00;28.20;;;4.70;;
22774;SDS011;11554;51.106;3.684;2023-11-19T15:55:00;28.20;;;4.70;;
22774;SDS011;11554;51.106;3.684;2023-11-19T16:00:00;27.90;;;5.40;;
22774;SDS011;11554;51.106;3.684;2023-11-19T16:05:00;27.90;;;5.40;;
22774;SDS011;11554;51.106;3.684;2023-11-19T16:10:00;25.90;;;4.30;;
22774;SDS011;11554;51.106;3.684;2023-11-19T16:15:00;25.90;;;4.30;;
22774;SDS011;11554;51.106;3.684;2023-11-19T16:20:00;24.60;;;4.00;;
22774;SDS011;11554;51.106;3.684;2023-11-19T16:25:00;24.60;;;4.00;;
22774;SDS011;11554;51.106;3.684;2023-11-19T16:30:00;25.60;;;4.90;;
22774;SDS011;11554;51.106;3.684;2023-11-19T16:35:00;25.60;;;4.90;;
22774;SDS011;11554;51.106;3.684;2023-11-19T16:40:00;22.40;;;3.10;;
22774;SDS011;11554;51.106;3.684;2023-11-19T16:45:00;22.40;;;3.10;;
22774;SDS011;11554;51.106;3.684;2023-11-19T16:50:00;20.00;;;3.70;;
22774;SDS011;11554;51.106;3.684;2023-11-19T16:55:00;20.00;;;3.70;;
22774;SDS011;11554;51.106;3.684;2023-11-19T17:00:00;19.70;;;3.70;;
22774;SDS011;11554;51.106;3.684;2023-11-19T17:05:00;19.70;;;3.70;;
22774;SDS011;11554;51.106;3.684;2023-11-19T17:10:00;20.50;;;4.20;;
22774;SDS011;11554;51.106;3.684;2023-11-19T17:15:00;20.50;;;4.20;;
22774;SDS011;11554;51.106;3.684;2023-11-19T17:20:00;17.60;;;3.60;;
22774;SDS011;11554;51.106;3.684;2023-11-19T17:25:01;17.60;;;3.60;;
22774;SDS011;11554;51.106;3.684;2023-11-19T17:30:00;24.60;;;3.70;;
22774;SDS011;11554;51.106;3.684;2023-11-19T17:35:00;24.60;;;3.70;;
22774;SDS011;11554;51.106;3.684;2023-11-19T17:40:00;24.10;;;4.50;;
22774;SDS011;11554;51.106;3.684;2023-11-19T17:45:00;24.10;;;4.50;;
22774;SDS011;11554;51.106;3.684;2023-11-19T17:50:00;19.80;;;4.20;;
22774;SDS011;11554;51.106;3.684;2023-11-19T17:55:00;19.80;;;4.20;;
22774;SDS011;11554;51.106;3.684;2023-11-19T18:00:00;22.30;;;4.40;;
22774;SDS011;11554;51.106;3.684;2023-11-19T18:05:00;22.30;;;4.40;;
22774;SDS011;11554;51.106;3.684;2023-11-19T18:10:00;18.90;;;4.20;;
22774;SDS011;11554;51.106;3.684;2023-11-19T18:15:00;18.90;;;4.20;;
22774;SDS011;11554;51.106;3.684;2023-11-19T18:20:00;21.40;;;3.90;;
22774;SDS011;11554;51.106;3.684;2023-11-19T18:25:00;21.40;;;3.90;;
22774;SDS011;11554;51.106;3.684;2023-11-19T18:30:00;19.40;;;3.80;;
22774;SDS011;11554;51.106;3.684;2023-11-19T18:35:00;19.40;;;3.80;;
22774;SDS011;11554;51.106;3.684;2023-11-19T18:40:00;20.50;;;3.50;;
22774;SDS011;11554;51.106;3.684;2023-11-19T18:45:00;20.50;;;3.50;;
22774;SDS011;11554;51.106;3.684;2023-11-19T18:50:00;22.70;;;3.90;;
22774;SDS011;11554;51.106;3.684;2023-11-19T18:55:00;22.70;;;3.90;;
22774;SDS011;11554;51.106;3.684;2023-11-19T19:00:00;20.70;;;3.70;;
22774;SDS011;11554;51.106;3.684;2023-11-19T19:05:00;20.70;;;3.70;;
22774;SDS011;11554;51.106;3.684;2023-11-19T19:10:00;21.10;;;4.30;;
22774;SDS011;11554;51.106;3.684;2023-11-19T19:15:00;21.10;;;4.30;;
22774;SDS011;11554;51.106;3.684;2023-11-19T19:20:00;18.40;;;3.40;;
22774;SDS011;11554;51.106;3.684;2023-11-19T19:25:01;18.40;;;3.40;;
22774;SDS011;11554;51.106;3.684;2023-11-19T19:30:00;21.30;;;4.20;;
22774;SDS011;11554;51.106;3.684;2023-11-19T19:35:00;21.30;;;4.20;;
22774;SDS011;11554;51.106;3.684;2023-11-19T19:40:00;20.80;;;3.30;;
22774;SDS011;11554;51.106;3.684;2023-11-19T19:45:00;20.80;;;3.30;;
22774;SDS011;11554;51.106;3.684;2023-11-19T19:50:00;18.20;;;3.50;;
22774;SDS011;11554;51.106;3.684;2023-11-19T19:55:00;18.20;;;3.50;;
22774;SDS011;11554;51.106;3.684;2023-11-19T20:00:00;16.50;;;2.80;;
22774;SDS011;11554;51.106;3.684;2023-11-19T20:05:00;16.50;;;2.80;;
22774;SDS011;11554;51.106;3.684;2023-11-19T20:10:00;16.90;;;3.30;;
22774;SDS011;11554;51.106;3.684;2023-11-19T20:15:00;16.90;;;3.30;;
22774;SDS011;11554;51.106;3.684;2023-11-19T20:20:00;19.20;;;3.20;;
22774;SDS011;11554;51.106;3.684;2023-11-19T20:25:00;19.20;;;3.20;;
22774;SDS011;11554;51.106;3.684;2023-11-19T20:30:00;17.50;;;3.20;;
22774;SDS011;11554;51.106;3.684;2023-11-19T20:35:00;17.50;;;3.20;;
22774;SDS011;11554;51.106;3.684;2023-11-19T20:40:00;15.30;;;2.50;;
22774;SDS011;11554;51.106;3.684;2023-11-19T20:45:00;15.30;;;2.50;;
22774;SDS011;11554;51.106;3.684;2023-11-19T20:50:00;13.40;;;2.70;;
22774;SDS011;11554;51.106;3.684;2023-11-19T20:55:00;13.40;;;2.70;;
22774;SDS011;11554;51.106;3.684;2023-11-19T21:00:00;18.10;;;2.90;;
22774;SDS011;11554;51.106;3.684;2023-11-19T21:05:00;18.10;;;2.90;;
22774;SDS011;11554;51.106;3.684;2023-11-19T21:10:00;20.50;;;4.00;;
22774;SDS011;11554;51.106;3.684;2023-11-19T21:15:00;20.50;;;4.00;;
22774;SDS011;11554;51.106;3.684;2023-11-19T21:20:00;18.30;;;3.80;;
22774;SDS011;11554;51.106;3.684;2023-11-19T21:25:00;18.30;;;3.80;;
22774;SDS011;11554;51.106;3.684;2023-11-19T21:30:00;20.00;;;4.00;;
22774;SDS011;11554;51.106;3.684;2023-11-19T21:35:00;20.00;;;4.00;;
22774;SDS011;11554;51.106;3.684;2023-11-19T21:40:00;19.80;;;3.50;;
22774;SDS011;11554;51.106;3.684;2023-11-19T21:45:00;19.80;;;3.50;;
22774;SDS011;11554;51.106;3.684;2023-11-19T21:50:00;22.90;;;3.70;;
22774;SDS011;11554;51.106;3.684;2023-11-19T21:55:00;22.90;;;3.70;;
22774;SDS011;11554;51.106;3.684;2023-11-19T22:00:00;21.00;;;4.00;;
22774;SDS011;11554;51.106;3.684;2023-11-19T22:05:00;21.00;;;4.00;;
22774;SDS011;11554;51.106;3.684;2023-11-19T22:10:00;21.40;;;4.20;;
22774;SDS011;11554;51.106;3.684;2023-11-19T22:15:00;21.40;;;4.20;;
22774;SDS011;11554;51.106;3.684;2023-11-19T22:20:00;19.40;;;3.50;;
22774;SDS011;11554;51.106;3.684;2023-11-19T22:25:00;19.40;;;3.50;;
22774;SDS011;11554;51.106;3.684;2023-11-19T22:30:00;11.30;;;2.00;;
22774;SDS011;11554;51.106;3.684;2023-11-19T22:35:00;11.30;;;2.00;;
22774;SDS011;11554;51.106;3.684;2023-11-19T22:40:00;17.90;;;2.80;;
22774;SDS011;11554;51.106;3.684;2023-11-19T22:45:00;17.90;;;2.80;;
22774;SDS011;11554;51.106;3.684;2023-11-19T22:50:00;15.10;;;2.80;;
22774;SDS011;11554;51.106;3.684;2023-11-19T22:55:00;15.10;;;2.80;;
22774;SDS011;11554;51.106;3.684;2023-11-19T23:00:00;19.30;;;3.40;;
22774;SDS011;11554;51.106;3.684;2023-11-19T23:05:00;19.30;;;3.40;;
22774;SDS011;11554;51.106;3.684;2023-11-19T23:10:00;22.90;;;3.60;;
22774;SDS011;11554;51.106;3.684;2023-11-19T23:15:00;22.90;;;3.60;;
22774;SDS011;11554;51.106;3.684;2023-11-19T23:20:01;23.80;;;3.80;;
22774;SDS011;11554;51.106;3.684;2023-11-19T23:25:00;23.80;;;3.80;;
22774;SDS011;11554;51.106;3.684;2023-11-19T23:30:01;26.50;;;4.00;;
22774;SDS011;11554;51.106;3.684;2023-11-19T23:35:00;26.50;;;4.00;;
22774;SDS011;11554;51.106;3.684;2023-11-19T23:40:00;23.10;;;3.70;;
22774;SDS011;11554;51.106;3.684;2023-11-19T23:45:00;23.10;;;3.70;;
22774;SDS011;11554;51.106;3.684;2023-11-19T23:50:00;25.20;;;3.90;;
22774;SDS011;11554;51.106;3.684;2023-11-19T23:55:00;25.20;;;3.90;;
